sensor_id;sensor_type;location;lat;lon;timestamp;P1;durP1;ratioP1;P2;durP2;ratioP2
19521;SDS011;9905;52.126;5.596;2023-01-15T00:00:19;14.05;;;13.40;;
19521;SDS011;9905;52.126;5.596;2023-01-15T00:02:46;13.55;;;12.85;;
19521;SDS011;9905;52.126;5.596;2023-01-15T00:05:13;13.52;;;12.95;;
19521;SDS011;9905;52.126;5.596;2023-01-15T00:07:41;13.02;;;12.52;;
19521;SDS011;9905;52.126;5.596;2023-01-15T00:10:09;14.10;;;13.25;;
19521;SDS011;9905;52.126;5.596;2023-01-15T00:12:36;13.63;;;12.68;;
19521;SDS011;9905;52.126;5.596;2023-01-15T00:15:03;14.35;;;13.57;;
19521;SDS011;9905;52.126;5.596;2023-01-15T00:17:30;13.68;;;13.20;;
19521;SDS011;9905;52.126;5.596;2023-01-15T00:19:57;14.05;;;13.30;;
19521;SDS011;9905;52.126;5.596;2023-01-15T00:22:24;14.43;;;13.65;;
19521;SDS011;9905;52.126;5.596;2023-01-15T00:24:52;14.05;;;13.35;;
19521;SDS011;9905;52.126;5.596;2023-01-15T00:27:36;14.30;;;13.30;;
19521;SDS011;9905;52.126;5.596;2023-01-15T00:30:08;14.73;;;13.70;;
19521;SDS011;9905;52.126;5.596;2023-01-15T00:32:36;13.68;;;13.18;;
19521;SDS011;9905;52.126;5.596;2023-01-15T00:35:04;14.43;;;13.63;;
19521;SDS011;9905;52.126;5.596;2023-01-15T00:37:31;13.63;;;12.77;;
19521;SDS011;9905;52.126;5.596;2023-01-15T00:39:59;14.77;;;13.90;;
19521;SDS011;9905;52.126;5.596;2023-01-15T00:42:26;14.23;;;13.15;;
19521;SDS011;9905;52.126;5.596;2023-01-15T00:44:53;15.43;;;14.15;;
19521;SDS011;9905;52.126;5.596;2023-01-15T00:47:19;14.98;;;14.18;;
19521;SDS011;9905;52.126;5.596;2023-01-15T00:49:46;13.10;;;12.70;;
19521;SDS011;9905;52.126;5.596;2023-01-15T00:52:14;13.52;;;12.98;;
19521;SDS011;9905;52.126;5.596;2023-01-15T00:54:41;13.90;;;13.40;;
19521;SDS011;9905;52.126;5.596;2023-01-15T00:57:09;13.63;;;12.82;;
19521;SDS011;9905;52.126;5.596;2023-01-15T00:59:36;14.68;;;13.20;;
19521;SDS011;9905;52.126;5.596;2023-01-15T01:02:03;13.43;;;12.70;;
19521;SDS011;9905;52.126;5.596;2023-01-15T01:04:29;14.20;;;13.30;;
19521;SDS011;9905;52.126;5.596;2023-01-15T01:06:57;14.07;;;13.00;;
19521;SDS011;9905;52.126;5.596;2023-01-15T01:09:23;13.43;;;12.50;;
19521;SDS011;9905;52.126;5.596;2023-01-15T01:11:50;12.68;;;12.18;;
19521;SDS011;9905;52.126;5.596;2023-01-15T01:14:18;12.93;;;12.32;;
19521;SDS011;9905;52.126;5.596;2023-01-15T01:16:45;14.90;;;13.70;;
19521;SDS011;9905;52.126;5.596;2023-01-15T01:19:13;15.32;;;14.57;;
19521;SDS011;9905;52.126;5.596;2023-01-15T01:21:42;13.65;;;12.77;;
19521;SDS011;9905;52.126;5.596;2023-01-15T01:24:09;12.85;;;12.07;;
19521;SDS011;9905;52.126;5.596;2023-01-15T01:26:37;13.15;;;12.43;;
19521;SDS011;9905;52.126;5.596;2023-01-15T01:29:03;14.00;;;13.07;;
19521;SDS011;9905;52.126;5.596;2023-01-15T01:31:32;13.50;;;12.15;;
19521;SDS011;9905;52.126;5.596;2023-01-15T01:33:58;13.07;;;11.90;;
19521;SDS011;9905;52.126;5.596;2023-01-15T01:36:26;12.20;;;11.43;;
19521;SDS011;9905;52.126;5.596;2023-01-15T01:38:54;13.98;;;12.85;;
19521;SDS011;9905;52.126;5.596;2023-01-15T01:41:21;12.25;;;11.18;;
19521;SDS011;9905;52.126;5.596;2023-01-15T01:43:51;13.00;;;12.18;;
19521;SDS011;9905;52.126;5.596;2023-01-15T01:46:20;12.43;;;11.45;;
19521;SDS011;9905;52.126;5.596;2023-01-15T01:48:48;11.20;;;10.38;;
19521;SDS011;9905;52.126;5.596;2023-01-15T01:51:17;12.93;;;11.68;;
19521;SDS011;9905;52.126;5.596;2023-01-15T01:53:46;11.88;;;10.80;;
19521;SDS011;9905;52.126;5.596;2023-01-15T01:56:13;11.88;;;11.20;;
19521;SDS011;9905;52.126;5.596;2023-01-15T01:58:41;11.05;;;10.25;;
19521;SDS011;9905;52.126;5.596;2023-01-15T02:01:12;10.70;;;9.88;;
19521;SDS011;9905;52.126;5.596;2023-01-15T02:03:39;10.60;;;10.13;;
19521;SDS011;9905;52.126;5.596;2023-01-15T02:06:08;11.73;;;11.05;;
19521;SDS011;9905;52.126;5.596;2023-01-15T02:08:35;11.18;;;10.75;;
19521;SDS011;9905;52.126;5.596;2023-01-15T02:11:03;11.73;;;10.43;;
19521;SDS011;9905;52.126;5.596;2023-01-15T02:13:33;9.90;;;9.20;;
19521;SDS011;9905;52.126;5.596;2023-01-15T02:16:05;10.15;;;9.25;;
19521;SDS011;9905;52.126;5.596;2023-01-15T02:18:39;11.80;;;10.23;;
19521;SDS011;9905;52.126;5.596;2023-01-15T02:21:14;10.05;;;9.35;;
19521;SDS011;9905;52.126;5.596;2023-01-15T02:23:52;10.63;;;8.65;;
19521;SDS011;9905;52.126;5.596;2023-01-15T02:26:49;9.32;;;8.60;;
19521;SDS011;9905;52.126;5.596;2023-01-15T02:29:38;9.93;;;9.23;;
19521;SDS011;9905;52.126;5.596;2023-01-15T02:32:13;9.05;;;8.63;;
19521;SDS011;9905;52.126;5.596;2023-01-15T02:34:45;9.32;;;8.50;;
19521;SDS011;9905;52.126;5.596;2023-01-15T02:37:17;8.75;;;8.05;;
19521;SDS011;9905;52.126;5.596;2023-01-15T02:39:48;11.65;;;8.07;;
19521;SDS011;9905;52.126;5.596;2023-01-15T02:42:18;8.23;;;7.82;;
19521;SDS011;9905;52.126;5.596;2023-01-15T02:44:48;9.27;;;8.57;;
19521;SDS011;9905;52.126;5.596;2023-01-15T02:47:18;9.98;;;9.50;;
19521;SDS011;9905;52.126;5.596;2023-01-15T02:49:47;8.77;;;8.30;;
19521;SDS011;9905;52.126;5.596;2023-01-15T02:52:18;8.85;;;8.23;;
19521;SDS011;9905;52.126;5.596;2023-01-15T02:54:49;8.98;;;8.13;;
19521;SDS011;9905;52.126;5.596;2023-01-15T02:57:20;8.18;;;7.75;;
19521;SDS011;9905;52.126;5.596;2023-01-15T02:59:50;8.55;;;7.40;;
19521;SDS011;9905;52.126;5.596;2023-01-15T03:02:20;8.45;;;7.90;;
19521;SDS011;9905;52.126;5.596;2023-01-15T03:04:52;8.18;;;7.72;;
19521;SDS011;9905;52.126;5.596;2023-01-15T03:07:23;8.60;;;7.97;;
19521;SDS011;9905;52.126;5.596;2023-01-15T03:09:52;8.32;;;7.72;;
19521;SDS011;9905;52.126;5.596;2023-01-15T03:12:23;8.25;;;7.78;;
19521;SDS011;9905;52.126;5.596;2023-01-15T03:14:55;8.93;;;8.32;;
19521;SDS011;9905;52.126;5.596;2023-01-15T03:17:30;8.63;;;7.95;;
19521;SDS011;9905;52.126;5.596;2023-01-15T03:20:01;9.75;;;8.23;;
19521;SDS011;9905;52.126;5.596;2023-01-15T03:22:35;7.88;;;7.47;;
19521;SDS011;9905;52.126;5.596;2023-01-15T03:25:05;7.38;;;7.07;;
19521;SDS011;9905;52.126;5.596;2023-01-15T03:27:37;9.23;;;8.63;;
19521;SDS011;9905;52.126;5.596;2023-01-15T03:30:05;8.63;;;7.80;;
19521;SDS011;9905;52.126;5.596;2023-01-15T03:32:33;9.00;;;8.38;;
19521;SDS011;9905;52.126;5.596;2023-01-15T03:35:01;8.85;;;8.45;;
19521;SDS011;9905;52.126;5.596;2023-01-15T03:37:30;8.40;;;7.90;;
19521;SDS011;9905;52.126;5.596;2023-01-15T03:39:57;7.97;;;7.57;;
19521;SDS011;9905;52.126;5.596;2023-01-15T03:42:28;8.10;;;7.47;;
19521;SDS011;9905;52.126;5.596;2023-01-15T03:45:11;8.32;;;8.02;;
19521;SDS011;9905;52.126;5.596;2023-01-15T03:47:46;8.30;;;7.63;;
19521;SDS011;9905;52.126;5.596;2023-01-15T03:50:21;8.70;;;8.13;;
19521;SDS011;9905;52.126;5.596;2023-01-15T03:52:54;8.07;;;7.78;;
19521;SDS011;9905;52.126;5.596;2023-01-15T03:55:29;8.75;;;8.13;;
19521;SDS011;9905;52.126;5.596;2023-01-15T03:58:06;8.55;;;7.90;;
19521;SDS011;9905;52.126;5.596;2023-01-15T04:00:38;8.68;;;7.97;;
19521;SDS011;9905;52.126;5.596;2023-01-15T04:03:08;8.95;;;8.45;;
19521;SDS011;9905;52.126;5.596;2023-01-15T04:05:37;9.73;;;8.90;;
19521;SDS011;9905;52.126;5.596;2023-01-15T04:08:05;8.73;;;8.23;;
19521;SDS011;9905;52.126;5.596;2023-01-15T04:10:33;9.25;;;8.52;;
19521;SDS011;9905;52.126;5.596;2023-01-15T04:13:00;8.82;;;8.27;;
19521;SDS011;9905;52.126;5.596;2023-01-15T04:15:28;9.40;;;8.50;;
19521;SDS011;9905;52.126;5.596;2023-01-15T04:17:55;9.70;;;8.90;;
19521;SDS011;9905;52.126;5.596;2023-01-15T04:20:21;9.88;;;9.18;;
19521;SDS011;9905;52.126;5.596;2023-01-15T04:22:48;11.55;;;9.38;;
19521;SDS011;9905;52.126;5.596;2023-01-15T04:25:15;10.27;;;9.10;;
19521;SDS011;9905;52.126;5.596;2023-01-15T04:27:42;10.15;;;9.27;;
19521;SDS011;9905;52.126;5.596;2023-01-15T04:30:09;9.02;;;8.52;;
19521;SDS011;9905;52.126;5.596;2023-01-15T04:32:38;9.68;;;9.18;;
19521;SDS011;9905;52.126;5.596;2023-01-15T04:35:05;9.48;;;8.73;;
19521;SDS011;9905;52.126;5.596;2023-01-15T04:37:32;9.65;;;9.27;;
19521;SDS011;9905;52.126;5.596;2023-01-15T04:39:59;10.70;;;9.82;;
19521;SDS011;9905;52.126;5.596;2023-01-15T04:42:25;9.50;;;8.82;;
19521;SDS011;9905;52.126;5.596;2023-01-15T04:45:09;10.20;;;9.23;;
19521;SDS011;9905;52.126;5.596;2023-01-15T04:47:37;10.98;;;10.02;;
19521;SDS011;9905;52.126;5.596;2023-01-15T04:50:04;9.48;;;8.98;;
19521;SDS011;9905;52.126;5.596;2023-01-15T04:52:32;9.30;;;8.85;;
19521;SDS011;9905;52.126;5.596;2023-01-15T04:54:58;9.93;;;9.45;;
19521;SDS011;9905;52.126;5.596;2023-01-15T04:57:25;10.85;;;9.85;;
19521;SDS011;9905;52.126;5.596;2023-01-15T04:59:52;9.52;;;9.07;;
19521;SDS011;9905;52.126;5.596;2023-01-15T05:02:19;10.00;;;9.10;;
19521;SDS011;9905;52.126;5.596;2023-01-15T05:04:47;9.40;;;8.80;;
19521;SDS011;9905;52.126;5.596;2023-01-15T05:07:14;9.60;;;9.30;;
19521;SDS011;9905;52.126;5.596;2023-01-15T05:09:41;10.20;;;9.50;;
19521;SDS011;9905;52.126;5.596;2023-01-15T05:12:08;10.50;;;9.88;;
19521;SDS011;9905;52.126;5.596;2023-01-15T05:14:34;10.35;;;9.57;;
19521;SDS011;9905;52.126;5.596;2023-01-15T05:17:01;11.68;;;11.05;;
19521;SDS011;9905;52.126;5.596;2023-01-15T05:19:28;10.90;;;10.55;;
19521;SDS011;9905;52.126;5.596;2023-01-15T05:21:56;11.20;;;10.55;;
19521;SDS011;9905;52.126;5.596;2023-01-15T05:24:23;10.93;;;10.38;;
19521;SDS011;9905;52.126;5.596;2023-01-15T05:26:50;11.35;;;10.65;;
19521;SDS011;9905;52.126;5.596;2023-01-15T05:29:16;13.00;;;11.70;;
19521;SDS011;9905;52.126;5.596;2023-01-15T05:31:43;11.35;;;10.93;;
19521;SDS011;9905;52.126;5.596;2023-01-15T05:34:10;12.43;;;11.55;;
19521;SDS011;9905;52.126;5.596;2023-01-15T05:36:37;12.35;;;11.68;;
19521;SDS011;9905;52.126;5.596;2023-01-15T05:39:05;12.40;;;11.73;;
19521;SDS011;9905;52.126;5.596;2023-01-15T05:41:32;11.52;;;11.02;;
19521;SDS011;9905;52.126;5.596;2023-01-15T05:44:16;13.10;;;12.20;;
19521;SDS011;9905;52.126;5.596;2023-01-15T05:46:45;12.45;;;11.85;;
19521;SDS011;9905;52.126;5.596;2023-01-15T05:49:14;12.27;;;11.68;;
19521;SDS011;9905;52.126;5.596;2023-01-15T05:51:42;11.85;;;11.40;;
19521;SDS011;9905;52.126;5.596;2023-01-15T05:54:12;12.15;;;11.55;;
19521;SDS011;9905;52.126;5.596;2023-01-15T05:56:40;11.18;;;10.60;;
19521;SDS011;9905;52.126;5.596;2023-01-15T05:59:09;13.23;;;12.52;;
19521;SDS011;9905;52.126;5.596;2023-01-15T06:01:36;12.25;;;11.55;;
19521;SDS011;9905;52.126;5.596;2023-01-15T06:04:04;12.30;;;11.35;;
19521;SDS011;9905;52.126;5.596;2023-01-15T06:06:31;13.00;;;12.13;;
19521;SDS011;9905;52.126;5.596;2023-01-15T06:08:59;11.23;;;10.32;;
19521;SDS011;9905;52.126;5.596;2023-01-15T06:11:27;10.68;;;9.68;;
19521;SDS011;9905;52.126;5.596;2023-01-15T06:13:54;12.15;;;11.40;;
19521;SDS011;9905;52.126;5.596;2023-01-15T06:16:21;12.65;;;11.85;;
19521;SDS011;9905;52.126;5.596;2023-01-15T06:18:48;12.98;;;11.82;;
19521;SDS011;9905;52.126;5.596;2023-01-15T06:21:14;12.98;;;11.93;;
19521;SDS011;9905;52.126;5.596;2023-01-15T06:23:41;11.23;;;10.55;;
19521;SDS011;9905;52.126;5.596;2023-01-15T06:26:10;9.05;;;8.85;;
19521;SDS011;9905;52.126;5.596;2023-01-15T06:28:40;10.52;;;10.00;;
19521;SDS011;9905;52.126;5.596;2023-01-15T06:31:07;9.32;;;8.70;;
19521;SDS011;9905;52.126;5.596;2023-01-15T06:33:35;11.15;;;10.30;;
19521;SDS011;9905;52.126;5.596;2023-01-15T06:36:03;10.40;;;9.55;;
19521;SDS011;9905;52.126;5.596;2023-01-15T06:38:30;8.95;;;8.70;;
19521;SDS011;9905;52.126;5.596;2023-01-15T06:40:58;9.15;;;8.45;;
19521;SDS011;9905;52.126;5.596;2023-01-15T06:43:25;9.90;;;9.52;;
19521;SDS011;9905;52.126;5.596;2023-01-15T06:46:11;10.52;;;10.02;;
19521;SDS011;9905;52.126;5.596;2023-01-15T06:49:10;13.10;;;11.95;;
19521;SDS011;9905;52.126;5.596;2023-01-15T06:51:37;12.30;;;11.45;;
19521;SDS011;9905;52.126;5.596;2023-01-15T06:54:04;11.30;;;10.90;;
19521;SDS011;9905;52.126;5.596;2023-01-15T06:56:30;11.07;;;10.20;;
19521;SDS011;9905;52.126;5.596;2023-01-15T06:58:57;11.82;;;11.07;;
19521;SDS011;9905;52.126;5.596;2023-01-15T07:01:25;12.18;;;11.50;;
19521;SDS011;9905;52.126;5.596;2023-01-15T07:03:54;12.43;;;11.60;;
19521;SDS011;9905;52.126;5.596;2023-01-15T07:06:21;12.00;;;11.18;;
19521;SDS011;9905;52.126;5.596;2023-01-15T07:08:48;11.85;;;11.10;;
19521;SDS011;9905;52.126;5.596;2023-01-15T07:11:15;11.38;;;10.68;;
19521;SDS011;9905;52.126;5.596;2023-01-15T07:13:42;10.52;;;10.10;;
19521;SDS011;9905;52.126;5.596;2023-01-15T07:16:08;11.52;;;10.85;;
19521;SDS011;9905;52.126;5.596;2023-01-15T07:18:52;10.70;;;10.10;;
19521;SDS011;9905;52.126;5.596;2023-01-15T07:21:20;10.55;;;9.90;;
19521;SDS011;9905;52.126;5.596;2023-01-15T07:23:47;9.70;;;9.23;;
19521;SDS011;9905;52.126;5.596;2023-01-15T07:26:14;10.05;;;9.10;;
19521;SDS011;9905;52.126;5.596;2023-01-15T07:28:40;8.88;;;8.38;;
19521;SDS011;9905;52.126;5.596;2023-01-15T07:31:07;8.45;;;7.95;;
19521;SDS011;9905;52.126;5.596;2023-01-15T07:33:34;8.35;;;7.95;;
19521;SDS011;9905;52.126;5.596;2023-01-15T07:36:02;8.30;;;7.90;;
19521;SDS011;9905;52.126;5.596;2023-01-15T07:38:29;8.32;;;7.93;;
19521;SDS011;9905;52.126;5.596;2023-01-15T07:40:57;9.48;;;8.73;;
19521;SDS011;9905;52.126;5.596;2023-01-15T07:43:38;9.57;;;8.82;;
19521;SDS011;9905;52.126;5.596;2023-01-15T07:46:18;8.93;;;8.43;;
19521;SDS011;9905;52.126;5.596;2023-01-15T07:49:04;8.82;;;8.52;;
19521;SDS011;9905;52.126;5.596;2023-01-15T07:52:01;9.20;;;8.68;;
19521;SDS011;9905;52.126;5.596;2023-01-15T07:54:27;8.82;;;8.32;;
19521;SDS011;9905;52.126;5.596;2023-01-15T07:56:54;7.65;;;7.20;;
19521;SDS011;9905;52.126;5.596;2023-01-15T07:59:21;8.50;;;8.07;;
19521;SDS011;9905;52.126;5.596;2023-01-15T08:01:49;8.23;;;7.70;;
19521;SDS011;9905;52.126;5.596;2023-01-15T08:04:15;7.90;;;7.50;;
19521;SDS011;9905;52.126;5.596;2023-01-15T08:06:42;8.95;;;8.25;;
19521;SDS011;9905;52.126;5.596;2023-01-15T08:09:10;8.48;;;7.80;;
19521;SDS011;9905;52.126;5.596;2023-01-15T08:11:37;8.50;;;7.82;;
19521;SDS011;9905;52.126;5.596;2023-01-15T08:14:26;8.30;;;7.72;;
19521;SDS011;9905;52.126;5.596;2023-01-15T08:17:11;9.70;;;8.85;;
19521;SDS011;9905;52.126;5.596;2023-01-15T08:19:37;9.07;;;8.35;;
19521;SDS011;9905;52.126;5.596;2023-01-15T08:22:04;8.38;;;7.88;;
19521;SDS011;9905;52.126;5.596;2023-01-15T08:24:32;9.75;;;8.70;;
19521;SDS011;9905;52.126;5.596;2023-01-15T08:26:59;8.65;;;8.20;;
19521;SDS011;9905;52.126;5.596;2023-01-15T08:29:26;9.27;;;8.57;;
19521;SDS011;9905;52.126;5.596;2023-01-15T08:31:53;8.70;;;8.27;;
19521;SDS011;9905;52.126;5.596;2023-01-15T08:34:19;10.57;;;8.52;;
19521;SDS011;9905;52.126;5.596;2023-01-15T08:36:46;8.95;;;8.52;;
19521;SDS011;9905;52.126;5.596;2023-01-15T08:39:14;8.50;;;7.80;;
19521;SDS011;9905;52.126;5.596;2023-01-15T08:41:42;8.05;;;7.53;;
19521;SDS011;9905;52.126;5.596;2023-01-15T08:44:09;8.23;;;7.72;;
19521;SDS011;9905;52.126;5.596;2023-01-15T08:46:35;10.65;;;9.50;;
19521;SDS011;9905;52.126;5.596;2023-01-15T08:49:02;7.85;;;7.45;;
19521;SDS011;9905;52.126;5.596;2023-01-15T08:51:29;7.80;;;7.18;;
19521;SDS011;9905;52.126;5.596;2023-01-15T08:53:56;7.85;;;6.85;;
19521;SDS011;9905;52.126;5.596;2023-01-15T08:56:22;8.68;;;8.02;;
19521;SDS011;9905;52.126;5.596;2023-01-15T08:58:50;8.57;;;8.02;;
19521;SDS011;9905;52.126;5.596;2023-01-15T09:01:17;7.43;;;6.78;;
19521;SDS011;9905;52.126;5.596;2023-01-15T09:03:44;6.60;;;6.20;;
19521;SDS011;9905;52.126;5.596;2023-01-15T09:06:11;6.90;;;6.40;;
19521;SDS011;9905;52.126;5.596;2023-01-15T09:08:38;6.63;;;5.97;;
19521;SDS011;9905;52.126;5.596;2023-01-15T09:11:05;7.25;;;6.75;;
19521;SDS011;9905;52.126;5.596;2023-01-15T09:13:33;6.40;;;5.97;;
19521;SDS011;9905;52.126;5.596;2023-01-15T09:16:06;5.97;;;5.68;;
19521;SDS011;9905;52.126;5.596;2023-01-15T09:18:35;6.60;;;6.10;;
19521;SDS011;9905;52.126;5.596;2023-01-15T09:21:03;6.28;;;5.70;;
19521;SDS011;9905;52.126;5.596;2023-01-15T09:23:30;6.38;;;5.88;;
19521;SDS011;9905;52.126;5.596;2023-01-15T09:25:57;5.95;;;5.45;;
19521;SDS011;9905;52.126;5.596;2023-01-15T09:28:26;6.25;;;5.68;;
19521;SDS011;9905;52.126;5.596;2023-01-15T09:30:53;5.82;;;5.53;;
19521;SDS011;9905;52.126;5.596;2023-01-15T09:33:21;6.32;;;5.97;;
19521;SDS011;9905;52.126;5.596;2023-01-15T09:35:48;5.50;;;5.10;;
19521;SDS011;9905;52.126;5.596;2023-01-15T09:38:16;5.40;;;5.00;;
19521;SDS011;9905;52.126;5.596;2023-01-15T09:40:46;5.80;;;5.30;;
19521;SDS011;9905;52.126;5.596;2023-01-15T09:43:19;5.25;;;4.78;;
19521;SDS011;9905;52.126;5.596;2023-01-15T09:45:56;9.68;;;4.32;;
19521;SDS011;9905;52.126;5.596;2023-01-15T09:48:31;7.95;;;4.85;;
19521;SDS011;9905;52.126;5.596;2023-01-15T09:51:11;5.28;;;4.28;;
19521;SDS011;9905;52.126;5.596;2023-01-15T09:53:52;4.75;;;4.22;;
19521;SDS011;9905;52.126;5.596;2023-01-15T09:56:29;4.40;;;4.07;;
19521;SDS011;9905;52.126;5.596;2023-01-15T09:58:57;4.53;;;4.10;;
19521;SDS011;9905;52.126;5.596;2023-01-15T10:01:29;4.45;;;4.28;;
19521;SDS011;9905;52.126;5.596;2023-01-15T10:04:00;4.35;;;4.05;;
19521;SDS011;9905;52.126;5.596;2023-01-15T10:06:32;4.45;;;4.20;;
19521;SDS011;9905;52.126;5.596;2023-01-15T10:09:09;5.95;;;4.55;;
19521;SDS011;9905;52.126;5.596;2023-01-15T10:11:41;5.03;;;4.60;;
19521;SDS011;9905;52.126;5.596;2023-01-15T10:14:33;4.18;;;3.88;;
19521;SDS011;9905;52.126;5.596;2023-01-15T10:17:19;3.92;;;3.70;;
19521;SDS011;9905;52.126;5.596;2023-01-15T10:19:51;4.32;;;4.03;;
19521;SDS011;9905;52.126;5.596;2023-01-15T10:25:12;4.68;;;3.97;;
19521;SDS011;9905;52.126;5.596;2023-01-15T10:27:43;4.65;;;4.35;;
19521;SDS011;9905;52.126;5.596;2023-01-15T10:30:14;4.57;;;4.15;;
19521;SDS011;9905;52.126;5.596;2023-01-15T10:32:43;4.07;;;3.67;;
19521;SDS011;9905;52.126;5.596;2023-01-15T10:35:30;5.32;;;4.13;;
19521;SDS011;9905;52.126;5.596;2023-01-15T10:38:05;4.93;;;4.15;;
19521;SDS011;9905;52.126;5.596;2023-01-15T10:40:42;5.18;;;4.10;;
19521;SDS011;9905;52.126;5.596;2023-01-15T10:43:22;4.38;;;3.65;;
19521;SDS011;9905;52.126;5.596;2023-01-15T10:45:54;3.78;;;3.47;;
19521;SDS011;9905;52.126;5.596;2023-01-15T10:48:24;9.15;;;3.60;;
19521;SDS011;9905;52.126;5.596;2023-01-15T10:50:59;4.20;;;3.83;;
19521;SDS011;9905;52.126;5.596;2023-01-15T10:53:30;8.75;;;4.43;;
19521;SDS011;9905;52.126;5.596;2023-01-15T10:56:04;7.78;;;4.03;;
19521;SDS011;9905;52.126;5.596;2023-01-15T10:58:38;10.55;;;4.63;;
19521;SDS011;9905;52.126;5.596;2023-01-15T11:01:08;3.50;;;3.20;;
19521;SDS011;9905;52.126;5.596;2023-01-15T11:03:40;3.72;;;3.45;;
19521;SDS011;9905;52.126;5.596;2023-01-15T11:06:12;3.35;;;3.13;;
19521;SDS011;9905;52.126;5.596;2023-01-15T11:08:41;3.65;;;3.38;;
19521;SDS011;9905;52.126;5.596;2023-01-15T11:11:16;4.00;;;3.55;;
19521;SDS011;9905;52.126;5.596;2023-01-15T11:13:52;5.13;;;3.25;;
19521;SDS011;9905;52.126;5.596;2023-01-15T11:16:36;3.90;;;3.50;;
19521;SDS011;9905;52.126;5.596;2023-01-15T11:19:26;3.92;;;3.63;;
19521;SDS011;9905;52.126;5.596;2023-01-15T11:22:12;3.47;;;3.38;;
19521;SDS011;9905;52.126;5.596;2023-01-15T11:24:45;3.72;;;3.40;;
19521;SDS011;9905;52.126;5.596;2023-01-15T11:27:15;6.13;;;3.40;;
19521;SDS011;9905;52.126;5.596;2023-01-15T11:29:49;4.03;;;3.30;;
19521;SDS011;9905;52.126;5.596;2023-01-15T11:32:18;11.70;;;4.10;;
19521;SDS011;9905;52.126;5.596;2023-01-15T11:34:53;3.63;;;3.33;;
19521;SDS011;9905;52.126;5.596;2023-01-15T11:37:21;6.65;;;4.15;;
19521;SDS011;9905;52.126;5.596;2023-01-15T11:39:52;4.65;;;4.10;;
19521;SDS011;9905;52.126;5.596;2023-01-15T11:42:20;3.95;;;3.55;;
19521;SDS011;9905;52.126;5.596;2023-01-15T11:45:11;3.47;;;3.28;;
19521;SDS011;9905;52.126;5.596;2023-01-15T11:47:57;3.58;;;3.22;;
19521;SDS011;9905;52.126;5.596;2023-01-15T11:50:52;5.05;;;3.65;;
19521;SDS011;9905;52.126;5.596;2023-01-15T11:53:23;4.82;;;3.20;;
19521;SDS011;9905;52.126;5.596;2023-01-15T11:55:52;3.97;;;3.67;;
19521;SDS011;9905;52.126;5.596;2023-01-15T11:58:24;4.20;;;3.53;;
19521;SDS011;9905;52.126;5.596;2023-01-15T12:00:52;7.93;;;4.05;;
19521;SDS011;9905;52.126;5.596;2023-01-15T12:03:21;7.05;;;4.13;;
19521;SDS011;9905;52.126;5.596;2023-01-15T12:05:56;3.95;;;3.67;;
19521;SDS011;9905;52.126;5.596;2023-01-15T12:08:30;4.15;;;3.33;;
19521;SDS011;9905;52.126;5.596;2023-01-15T12:14:22;4.55;;;3.35;;
19521;SDS011;9905;52.126;5.596;2023-01-15T12:17:06;3.70;;;3.50;;
19521;SDS011;9905;52.126;5.596;2023-01-15T12:19:44;5.72;;;4.45;;
19521;SDS011;9905;52.126;5.596;2023-01-15T12:22:22;5.30;;;3.95;;
19521;SDS011;9905;52.126;5.596;2023-01-15T12:25:15;4.63;;;3.58;;
19521;SDS011;9905;52.126;5.596;2023-01-15T12:28:01;3.50;;;3.30;;
19521;SDS011;9905;52.126;5.596;2023-01-15T12:30:37;6.25;;;4.13;;
19521;SDS011;9905;52.126;5.596;2023-01-15T12:33:12;4.43;;;4.20;;
19521;SDS011;9905;52.126;5.596;2023-01-15T12:35:45;5.10;;;4.80;;
19521;SDS011;9905;52.126;5.596;2023-01-15T12:38:22;4.60;;;4.35;;
19521;SDS011;9905;52.126;5.596;2023-01-15T12:41:00;5.75;;;5.45;;
19521;SDS011;9905;52.126;5.596;2023-01-15T12:43:32;6.60;;;6.00;;
19521;SDS011;9905;52.126;5.596;2023-01-15T12:46:16;7.13;;;5.97;;
19521;SDS011;9905;52.126;5.596;2023-01-15T12:48:48;7.03;;;6.10;;
19521;SDS011;9905;52.126;5.596;2023-01-15T12:51:20;5.85;;;5.55;;
19521;SDS011;9905;52.126;5.596;2023-01-15T12:53:53;8.20;;;5.30;;
19521;SDS011;9905;52.126;5.596;2023-01-15T12:56:27;7.70;;;5.40;;
19521;SDS011;9905;52.126;5.596;2023-01-15T12:58:59;6.15;;;5.50;;
19521;SDS011;9905;52.126;5.596;2023-01-15T13:01:33;7.43;;;6.57;;
19521;SDS011;9905;52.126;5.596;2023-01-15T13:04:10;10.63;;;8.02;;
19521;SDS011;9905;52.126;5.596;2023-01-15T13:06:43;6.78;;;6.20;;
19521;SDS011;9905;52.126;5.596;2023-01-15T13:09:15;7.15;;;6.70;;
19521;SDS011;9905;52.126;5.596;2023-01-15T13:11:52;8.02;;;7.28;;
19521;SDS011;9905;52.126;5.596;2023-01-15T13:14:19;7.72;;;7.35;;
19521;SDS011;9905;52.126;5.596;2023-01-15T13:16:49;8.52;;;7.10;;
19521;SDS011;9905;52.126;5.596;2023-01-15T13:19:28;7.15;;;6.78;;
19521;SDS011;9905;52.126;5.596;2023-01-15T13:22:04;7.65;;;7.00;;
19521;SDS011;9905;52.126;5.596;2023-01-15T13:24:41;7.22;;;6.78;;
19521;SDS011;9905;52.126;5.596;2023-01-15T13:27:28;7.20;;;6.85;;
19521;SDS011;9905;52.126;5.596;2023-01-15T13:30:13;7.13;;;6.65;;
19521;SDS011;9905;52.126;5.596;2023-01-15T13:32:47;6.75;;;6.07;;
19521;SDS011;9905;52.126;5.596;2023-01-15T13:35:18;7.05;;;6.32;;
19521;SDS011;9905;52.126;5.596;2023-01-15T13:37:53;6.47;;;6.18;;
19521;SDS011;9905;52.126;5.596;2023-01-15T13:40:24;6.28;;;5.78;;
19521;SDS011;9905;52.126;5.596;2023-01-15T13:42:58;6.55;;;6.18;;
19521;SDS011;9905;52.126;5.596;2023-01-15T13:45:30;6.10;;;5.90;;
19521;SDS011;9905;52.126;5.596;2023-01-15T13:48:02;9.43;;;6.38;;
19521;SDS011;9905;52.126;5.596;2023-01-15T13:50:32;6.13;;;5.72;;
19521;SDS011;9905;52.126;5.596;2023-01-15T13:53:02;6.50;;;6.10;;
19521;SDS011;9905;52.126;5.596;2023-01-15T13:55:32;6.60;;;6.07;;
19521;SDS011;9905;52.126;5.596;2023-01-15T13:58:13;7.13;;;6.28;;
19521;SDS011;9905;52.126;5.596;2023-01-15T14:00:43;6.45;;;6.15;;
19521;SDS011;9905;52.126;5.596;2023-01-15T14:03:24;7.18;;;6.75;;
19521;SDS011;9905;52.126;5.596;2023-01-15T14:05:55;7.32;;;6.75;;
19521;SDS011;9905;52.126;5.596;2023-01-15T14:08:24;7.97;;;7.22;;
19521;SDS011;9905;52.126;5.596;2023-01-15T14:10:53;7.15;;;6.45;;
19521;SDS011;9905;52.126;5.596;2023-01-15T14:16:21;6.43;;;6.13;;
19521;SDS011;9905;52.126;5.596;2023-01-15T14:19:03;6.95;;;6.65;;
19521;SDS011;9905;52.126;5.596;2023-01-15T14:21:46;6.13;;;5.90;;
19521;SDS011;9905;52.126;5.596;2023-01-15T14:24:32;6.93;;;6.63;;
19521;SDS011;9905;52.126;5.596;2023-01-15T14:27:16;6.75;;;6.35;;
19521;SDS011;9905;52.126;5.596;2023-01-15T14:30:00;7.38;;;6.55;;
19521;SDS011;9905;52.126;5.596;2023-01-15T14:32:43;6.30;;;5.80;;
19521;SDS011;9905;52.126;5.596;2023-01-15T14:35:22;6.93;;;6.32;;
19521;SDS011;9905;52.126;5.596;2023-01-15T14:37:50;7.05;;;6.60;;
19521;SDS011;9905;52.126;5.596;2023-01-15T14:40:20;7.80;;;6.90;;
19521;SDS011;9905;52.126;5.596;2023-01-15T14:42:49;11.15;;;8.10;;
19521;SDS011;9905;52.126;5.596;2023-01-15T14:45:28;8.95;;;8.23;;
19521;SDS011;9905;52.126;5.596;2023-01-15T14:47:57;8.18;;;7.72;;
19521;SDS011;9905;52.126;5.596;2023-01-15T14:50:33;9.43;;;8.20;;
19521;SDS011;9905;52.126;5.596;2023-01-15T14:53:05;9.38;;;7.55;;
19521;SDS011;9905;52.126;5.596;2023-01-15T14:55:55;9.88;;;7.40;;
19521;SDS011;9905;52.126;5.596;2023-01-15T14:58:35;7.78;;;7.25;;
19521;SDS011;9905;52.126;5.596;2023-01-15T15:01:13;6.75;;;6.30;;
19521;SDS011;9905;52.126;5.596;2023-01-15T15:03:48;8.18;;;7.47;;
19521;SDS011;9905;52.126;5.596;2023-01-15T15:06:18;7.72;;;7.05;;
19521;SDS011;9905;52.126;5.596;2023-01-15T15:08:47;7.80;;;6.55;;
19521;SDS011;9905;52.126;5.596;2023-01-15T15:11:18;8.50;;;7.95;;
19521;SDS011;9905;52.126;5.596;2023-01-15T15:14:06;7.28;;;6.97;;
19521;SDS011;9905;52.126;5.596;2023-01-15T15:16:39;6.65;;;6.35;;
19521;SDS011;9905;52.126;5.596;2023-01-15T15:19:11;7.88;;;7.18;;
19521;SDS011;9905;52.126;5.596;2023-01-15T15:21:42;6.47;;;6.00;;
19521;SDS011;9905;52.126;5.596;2023-01-15T15:24:14;7.10;;;6.60;;
19521;SDS011;9905;52.126;5.596;2023-01-15T15:26:46;7.30;;;5.75;;